createdAt,value
2019-06-15T00:00:03.865Z,92.38
2019-06-15T00:01:05.003Z,92.09
2019-06-15T00:02:04.065Z,92.47
2019-06-15T00:03:04.225Z,92.29
2019-06-15T00:04:04.412Z,92.33
2019-06-15T00:05:04.536Z,92.38
2019-06-15T00:06:04.849Z,92.23
2019-06-15T00:07:04.943Z,92.09
2019-06-15T00:08:05.192Z,91.99
2019-06-15T00:09:05.095Z,92.19
2019-06-15T00:10:05.338Z,92.47
2019-06-15T00:11:05.731Z,92.38
2019-06-15T00:12:05.689Z,91.99
2019-06-15T00:13:05.734Z,92.04
2019-06-15T00:14:05.943Z,91.61
2019-06-15T00:15:06.084Z,92.57
2019-06-15T00:16:06.229Z,92.67
2019-06-15T00:17:06.363Z,93.24
2019-06-15T00:18:06.689Z,92.67
2019-06-15T00:19:06.784Z,92.76
2019-06-15T00:20:06.897Z,93.34
2019-06-15T00:21:07.164Z,93.05
2019-06-15T00:22:07.189Z,93.24
2019-06-15T00:23:07.535Z,92.67
2019-06-15T00:24:07.552Z,92.47
2019-06-15T00:25:07.789Z,93.34
2019-06-15T00:26:07.891Z,92.67
2019-06-15T00:27:08.226Z,93.24
2019-06-15T00:28:08.223Z,93.05
2019-06-15T00:29:08.338Z,93.15
2019-06-15T00:30:08.802Z,93.05
2019-06-15T00:31:08.501Z,92.76
2019-06-15T00:32:08.929Z,92.47
2019-06-15T00:33:09.071Z,92.47
2019-06-15T00:34:09.212Z,92.76
2019-06-15T00:35:09.323Z,93.34
2019-06-15T00:36:09.387Z,93.05
2019-06-15T00:37:09.729Z,92.96
2019-06-15T00:38:09.924Z,93.10
2019-06-15T00:39:10.062Z,93.24
2019-06-15T00:40:10.247Z,93.05
2019-06-15T00:41:10.258Z,93.29
2019-06-15T00:42:10.498Z,93.44
2019-06-15T00:43:10.784Z,93.44
2019-06-15T00:44:10.891Z,93.44
2019-06-15T00:45:11.142Z,93.34
2019-06-15T00:46:11.170Z,93.24
2019-06-15T00:47:11.350Z,92.91
2019-06-15T00:48:11.510Z,92.67
2019-06-15T00:49:11.651Z,92.47
2019-06-15T00:50:15.103Z,92.47
2019-06-15T00:51:14.463Z,92.81
2019-06-15T00:52:15.388Z,93.24
2019-06-15T00:53:15.236Z,92.86
2019-06-15T00:54:14.748Z,93.15
2019-06-15T00:55:14.101Z,93.10
2019-06-15T00:56:15.461Z,93.29
2019-06-15T00:57:17.258Z,93.49
2019-06-15T00:58:18.873Z,93.39
2019-06-15T00:59:16.970Z,93.01
2019-06-15T01:00:13.476Z,93.49
2019-06-15T01:01:13.596Z,93.39
2019-06-15T01:02:13.822Z,93.58
2019-06-15T01:03:14.048Z,94.06
2019-06-15T01:04:14.480Z,93.58
2019-06-15T01:05:15.306Z,93.96
2019-06-15T01:06:14.665Z,93.58
2019-06-15T01:07:14.758Z,94.35
2019-06-15T01:08:14.792Z,94.73
2019-06-15T01:09:14.942Z,95.12
2019-06-15T01:10:15.125Z,94.59
2019-06-15T01:11:15.368Z,94.73
2019-06-15T01:12:15.289Z,95.07
2019-06-15T01:13:15.669Z,94.93
2019-06-15T01:14:16.643Z,94.54
2019-06-15T01:15:15.908Z,94.93
2019-06-15T01:16:16.184Z,94.93
2019-06-15T01:17:16.164Z,95.12
2019-06-15T01:18:16.289Z,94.83
2019-06-15T01:19:16.510Z,94.54
2019-06-15T01:20:16.540Z,94.93
2019-06-15T01:21:16.629Z,95.31
2019-06-15T01:22:16.870Z,95.07
2019-06-15T01:23:17.085Z,94.93
2019-06-15T01:24:17.150Z,95.31
2019-06-15T01:25:17.244Z,95.03
2019-06-15T01:26:17.494Z,95.40
2019-06-15T01:27:17.702Z,95.50
2019-06-15T01:28:17.677Z,95.40
2019-06-15T01:29:18.011Z,95.31
2019-06-15T01:30:18.073Z,95.60
2019-06-15T01:31:18.277Z,95.60
2019-06-15T01:32:18.485Z,95.40
2019-06-15T01:33:18.576Z,95.70
2019-06-15T01:34:18.776Z,95.50
2019-06-15T01:35:18.889Z,95.50
2019-06-15T01:36:19.163Z,95.21
2019-06-15T01:37:19.271Z,95.40
2019-06-15T01:38:19.436Z,95.60
2019-06-15T01:39:19.689Z,95.31
2019-06-15T01:40:19.852Z,95.60
2019-06-15T01:41:20.007Z,95.40
2019-06-15T01:42:20.580Z,95.40
2019-06-15T01:43:20.400Z,94.73
2019-06-15T01:44:20.706Z,94.83
2019-06-15T01:45:20.855Z,94.93
2019-06-15T01:46:20.933Z,94.73
2019-06-15T01:47:21.119Z,93.77
2019-06-15T01:48:21.535Z,93.39
2019-06-15T01:49:21.538Z,93.29
2019-06-15T01:50:21.564Z,93.96
2019-06-15T01:51:21.801Z,93.68
2019-06-15T01:52:21.802Z,94.06
2019-06-15T01:53:22.110Z,93.77
2019-06-15T01:54:22.215Z,94.16
2019-06-15T01:55:22.402Z,93.19
2019-06-15T01:56:22.500Z,93.29
2019-06-15T01:57:22.582Z,93.29
2019-06-15T01:58:22.835Z,93.05
2019-06-15T01:59:22.928Z,92.52
2019-06-15T02:00:23.042Z,92.62
2019-06-15T02:01:23.249Z,92.14
2019-06-15T02:02:23.323Z,92.14
2019-06-15T02:03:23.478Z,92.09
2019-06-15T02:04:23.662Z,91.99
2019-06-15T02:05:24.549Z,92.24
2019-06-15T02:06:23.980Z,92.38
2019-06-15T02:07:24.205Z,92.29
2019-06-15T02:08:24.499Z,92.72
2019-06-15T02:09:24.586Z,93.19
2019-06-15T02:10:24.836Z,92.67
2019-06-15T02:11:25.088Z,92.57
2019-06-15T02:12:25.083Z,92.76
2019-06-15T02:13:25.306Z,92.86
2019-06-15T02:14:26.521Z,93.05
2019-06-15T02:15:25.727Z,93.87
2019-06-15T02:16:25.837Z,93.96
2019-06-15T02:17:26.450Z,93.87
2019-06-15T02:18:26.134Z,93.87
2019-06-15T02:19:26.230Z,94.06
2019-06-15T02:20:26.529Z,94.16
2019-06-15T02:21:26.728Z,93.77
2019-06-15T02:22:26.757Z,93.68
2019-06-15T02:23:27.603Z,93.87
2019-06-15T02:24:27.032Z,93.58
2019-06-15T02:25:35.246Z,93.58
2019-06-15T02:26:27.418Z,94.16
2019-06-15T02:27:27.551Z,93.68
2019-06-15T02:28:27.814Z,93.58
2019-06-15T02:29:27.894Z,93.19
2019-06-15T02:30:28.114Z,94.06
2019-06-15T02:31:28.376Z,93.96
2019-06-15T02:32:28.348Z,93.29
2019-06-15T02:33:28.601Z,92.81
2019-06-15T02:34:28.731Z,93.01
2019-06-15T02:35:29.164Z,93.58
2019-06-15T02:36:29.043Z,93.96
2019-06-15T02:37:29.251Z,94.06
2019-06-15T02:38:29.400Z,93.68
2019-06-15T02:39:29.883Z,94.06
2019-06-15T02:40:29.881Z,93.96
2019-06-15T02:41:30.429Z,94.06
2019-06-15T02:42:31.215Z,94.93
2019-06-15T02:43:30.167Z,94.64
2019-06-15T02:44:31.531Z,94.93
2019-06-15T02:45:30.485Z,94.45
2019-06-15T02:46:30.752Z,94.73
2019-06-15T02:47:30.836Z,94.54
2019-06-15T02:48:31.157Z,94.16
2019-06-15T02:49:31.408Z,93.87
2019-06-15T02:50:31.445Z,94.26
2019-06-15T02:51:32.494Z,94.16
2019-06-15T02:52:31.882Z,94.06
2019-06-15T02:53:32.113Z,93.87
2019-06-15T02:54:32.090Z,94.16
2019-06-15T02:55:32.397Z,94.35
2019-06-15T02:56:32.663Z,94.35
2019-06-15T02:57:32.693Z,93.96
2019-06-15T02:58:33.425Z,93.96
2019-06-15T02:59:32.918Z,94.06
2019-06-15T03:00:33.197Z,94.16
2019-06-15T03:01:33.222Z,94.83
2019-06-15T03:02:33.510Z,94.64
2019-06-15T03:03:34.141Z,94.73
2019-06-15T03:04:33.769Z,94.54
2019-06-15T03:05:33.935Z,94.73
2019-06-15T03:06:34.235Z,94.73
2019-06-15T03:07:35.415Z,95.40
2019-06-15T03:08:34.521Z,95.94
2019-06-15T03:09:34.773Z,95.70
2019-06-15T03:10:35.502Z,95.98
2019-06-15T03:11:35.084Z,95.89
2019-06-15T03:12:35.402Z,95.60
2019-06-15T03:13:35.565Z,95.70
2019-06-15T03:14:35.650Z,95.60
2019-06-15T03:15:35.898Z,96.17
2019-06-15T03:16:36.074Z,95.60
2019-06-15T03:17:36.228Z,95.31
2019-06-15T03:18:36.374Z,95.60
2019-06-15T03:19:36.595Z,95.31
2019-06-15T03:20:36.648Z,95.60
2019-06-15T03:21:36.800Z,95.40
2019-06-15T03:22:37.047Z,95.40
2019-06-15T03:23:37.332Z,95.31
2019-06-15T03:24:37.320Z,95.40
2019-06-15T03:25:37.492Z,95.31
2019-06-15T03:26:37.638Z,95.12
2019-06-15T03:27:37.735Z,95.21
2019-06-15T03:28:37.891Z,95.03
2019-06-15T03:29:38.016Z,95.60
2019-06-15T03:30:38.287Z,95.40
2019-06-15T03:31:38.443Z,95.21
2019-06-15T03:32:38.420Z,95.70
2019-06-15T03:33:38.730Z,95.12
2019-06-15T03:34:38.787Z,96.17
2019-06-15T03:35:39.169Z,95.40
2019-06-15T03:36:39.472Z,95.98
2019-06-15T03:37:39.257Z,95.79
2019-06-15T03:38:41.957Z,95.84
2019-06-15T03:39:42.154Z,95.60
2019-06-15T03:40:43.207Z,95.65
2019-06-15T03:41:43.154Z,95.98
2019-06-15T03:42:42.035Z,95.89
2019-06-15T03:43:43.125Z,95.70
2019-06-15T03:44:42.373Z,95.21
2019-06-15T03:45:43.299Z,95.98
2019-06-15T03:46:43.596Z,95.70
2019-06-15T03:47:43.689Z,95.79
2019-06-15T03:48:42.853Z,95.60
2019-06-15T03:49:44.684Z,95.98
2019-06-15T03:50:44.596Z,95.89
2019-06-15T03:51:43.656Z,95.55
2019-06-15T03:52:43.507Z,95.98
2019-06-15T03:53:43.700Z,95.21
2019-06-15T03:54:44.059Z,95.40
2019-06-15T03:55:44.276Z,95.94
2019-06-15T03:56:44.309Z,95.60
2019-06-15T03:57:46.912Z,95.21
2019-06-15T03:58:46.478Z,95.60
2019-06-15T03:59:46.809Z,95.31
2019-06-15T04:00:44.961Z,95.84
2019-06-15T04:01:47.272Z,95.60
2019-06-15T04:02:47.494Z,95.70
2019-06-15T04:03:45.500Z,95.36
2019-06-15T04:04:45.508Z,95.89
2019-06-15T04:05:46.556Z,96.03
2019-06-15T04:06:46.565Z,96.03
2019-06-15T04:07:44.150Z,96.03
2019-06-15T04:08:44.314Z,96.13
2019-06-15T04:09:44.413Z,95.75
2019-06-15T04:10:44.683Z,95.89
2019-06-15T04:11:44.790Z,95.84
2019-06-15T04:12:45.029Z,95.79
2019-06-15T04:13:45.061Z,95.94
2019-06-15T04:14:45.358Z,96.61
2019-06-15T04:15:45.446Z,96.61
2019-06-15T04:16:45.642Z,96.89
2019-06-15T04:17:45.850Z,96.61
2019-06-15T04:18:46.044Z,96.51
2019-06-15T04:19:46.136Z,96.61
2019-06-15T04:20:46.303Z,96.89
2019-06-15T04:21:46.389Z,96.70
2019-06-15T04:22:46.601Z,96.61
2019-06-15T04:23:46.751Z,96.32
2019-06-15T04:24:46.998Z,96.61
2019-06-15T04:25:47.022Z,96.61
2019-06-15T04:26:47.137Z,95.75
2019-06-15T04:27:47.439Z,95.65
2019-06-15T04:28:47.595Z,96.32
2019-06-15T04:29:47.722Z,96.03
2019-06-15T04:30:47.980Z,96.47
2019-06-15T04:31:48.095Z,96.22
2019-06-15T04:32:48.281Z,95.94
2019-06-15T04:33:48.410Z,95.94
2019-06-15T04:34:48.578Z,96.13
2019-06-15T04:35:48.754Z,95.98
2019-06-15T04:36:48.879Z,96.17
2019-06-15T04:37:49.064Z,96.17
2019-06-15T04:38:49.261Z,96.13
2019-06-15T04:39:49.386Z,96.17
2019-06-15T04:40:49.585Z,95.79
2019-06-15T04:41:49.671Z,95.70
2019-06-15T04:42:49.795Z,95.50
2019-06-15T04:43:49.912Z,95.70
2019-06-15T04:44:50.001Z,95.70
2019-06-15T04:45:50.243Z,95.89
2019-06-15T04:46:50.507Z,95.89
2019-06-15T04:47:50.500Z,95.70
2019-06-15T04:48:50.733Z,95.79
2019-06-15T04:49:50.826Z,95.50
2019-06-15T04:50:50.979Z,95.98
2019-06-15T04:51:51.202Z,95.45
2019-06-15T04:52:51.260Z,95.60
2019-06-15T04:53:51.376Z,94.88
2019-06-15T04:54:51.611Z,94.11
2019-06-15T04:55:51.857Z,94.40
2019-06-15T04:56:51.969Z,94.11
2019-06-15T04:57:52.309Z,93.34
2019-06-15T04:58:52.546Z,93.05
2019-06-15T04:59:52.650Z,93.05
2019-06-15T05:00:52.928Z,92.57
2019-06-15T05:01:53.154Z,92.19
2019-06-15T05:02:53.339Z,91.80
2019-06-15T05:03:53.453Z,92.67
2019-06-15T05:04:53.231Z,92.57
2019-06-15T05:05:53.367Z,92.09
2019-06-15T05:06:53.525Z,92.76
2019-06-15T05:07:53.655Z,91.90
2019-06-15T05:08:53.821Z,92.38
2019-06-15T05:09:54.090Z,92.76
2019-06-15T05:10:59.679Z,92.76
2019-06-15T05:11:54.247Z,93.24
2019-06-15T05:12:54.443Z,92.76
2019-06-15T05:13:54.637Z,93.24
2019-06-15T05:14:54.816Z,93.15
2019-06-15T05:15:54.931Z,92.86
2019-06-15T05:16:55.711Z,93.53
2019-06-15T05:17:55.540Z,93.38
2019-06-15T05:18:56.541Z,92.52
2019-06-15T05:19:55.923Z,92.23
2019-06-15T05:20:55.886Z,91.94
2019-06-15T05:21:56.059Z,92.13
2019-06-15T05:22:56.963Z,91.66
2019-06-15T05:23:56.318Z,91.17
2019-06-15T05:24:56.588Z,90.89
2019-06-15T05:25:56.747Z,90.89
2019-06-15T05:27:05.829Z,90.50
2019-06-15T05:27:57.018Z,90.69
2019-06-15T05:28:57.311Z,90.98
2019-06-15T05:29:57.396Z,90.73
2019-06-15T05:31:01.279Z,90.45
2019-06-15T05:31:57.834Z,90.30
2019-06-15T05:32:57.944Z,90.35
2019-06-15T05:33:58.054Z,89.97
2019-06-15T05:34:58.153Z,89.49
2019-06-15T05:35:58.421Z,90.01
2019-06-15T05:36:58.844Z,89.53
2019-06-15T05:37:58.835Z,89.24
2019-06-15T05:38:58.916Z,89.34
2019-06-15T05:39:59.028Z,88.95
2019-06-15T05:40:59.623Z,89.29
2019-06-15T05:41:59.297Z,89.09
2019-06-15T05:42:59.520Z,89.19
2019-06-15T05:43:59.758Z,87.74
2019-06-15T05:45:00.169Z,87.74
2019-06-15T05:46:00.296Z,87.60
2019-06-15T05:47:00.555Z,87.70
2019-06-15T05:48:00.373Z,87.50
2019-06-15T05:49:00.773Z,87.02
2019-06-15T05:50:00.679Z,86.44
2019-06-15T05:51:00.838Z,85.57
2019-06-15T05:52:01.003Z,85.57
2019-06-15T05:53:01.456Z,85.19
2019-06-15T05:54:01.504Z,85.09
2019-06-15T05:55:01.640Z,85.03
2019-06-15T05:56:01.877Z,85.77
2019-06-15T05:57:02.130Z,85.57
2019-06-15T05:58:02.540Z,86.15
2019-06-15T05:59:02.551Z,86.73
2019-06-15T06:00:02.692Z,86.15
2019-06-15T06:01:03.102Z,85.86
2019-06-15T06:02:02.838Z,85.42
2019-06-15T06:03:02.987Z,85.13
2019-06-15T06:04:03.184Z,85.71
2019-06-15T06:05:03.342Z,84.84
2019-06-15T06:06:03.478Z,85.03
2019-06-15T06:07:03.569Z,83.69
2019-06-15T06:08:03.776Z,83.25
2019-06-15T06:09:03.910Z,83.63
2019-06-15T06:10:04.283Z,83.44
2019-06-15T06:11:04.201Z,83.15
2019-06-15T06:12:04.454Z,82.96
2019-06-15T06:13:04.693Z,83.19
2019-06-15T06:14:04.725Z,82.51
2019-06-15T06:15:04.835Z,82.13
2019-06-15T06:16:04.957Z,82.48
2019-06-15T06:17:05.107Z,82.28
2019-06-15T06:18:05.305Z,82.51
2019-06-15T06:19:05.364Z,82.61
2019-06-15T06:20:05.902Z,81.74
2019-06-15T06:21:05.743Z,81.74
2019-06-15T06:22:06.000Z,81.45
2019-06-15T06:23:06.188Z,81.45
2019-06-15T06:24:06.301Z,81.68
2019-06-15T06:25:06.526Z,81.49
2019-06-15T06:26:06.633Z,81.49
2019-06-15T06:27:06.884Z,80.57
2019-06-15T06:28:06.960Z,79.60
2019-06-15T06:29:07.086Z,79.54
2019-06-15T06:30:07.542Z,78.96
2019-06-15T06:31:07.781Z,78.29
2019-06-15T06:32:07.645Z,78.29
2019-06-15T06:33:07.736Z,78.87
2019-06-15T06:34:07.841Z,78.19
2019-06-15T06:35:08.020Z,78.00
2019-06-15T06:36:08.213Z,77.71
2019-06-15T06:37:08.352Z,77.84
2019-06-15T06:38:08.485Z,77.65
2019-06-15T06:39:08.585Z,78.23
2019-06-15T06:40:08.786Z,77.45
2019-06-15T06:41:08.899Z,77.94
2019-06-15T06:42:10.084Z,77.45
2019-06-15T06:43:10.930Z,77.84
2019-06-15T06:44:12.839Z,78.27
2019-06-15T06:45:11.203Z,77.78
2019-06-15T06:46:09.692Z,77.59
2019-06-15T06:47:09.847Z,76.66
2019-06-15T06:48:10.022Z,75.50
2019-06-15T06:49:10.095Z,75.02
2019-06-15T06:50:10.194Z,74.15
2019-06-15T06:51:10.354Z,74.47
2019-06-15T06:52:10.611Z,73.69
2019-06-15T06:53:10.794Z,72.15
2019-06-15T06:54:10.892Z,71.76
2019-06-15T06:55:11.143Z,71.76
2019-06-15T06:56:11.249Z,72.09
2019-06-15T06:57:11.384Z,71.31
2019-06-15T06:58:11.494Z,70.83
2019-06-15T06:59:11.794Z,71.12
2019-06-15T07:00:11.927Z,70.83
2019-06-15T07:01:12.044Z,70.76
2019-06-15T07:02:12.359Z,70.47
2019-06-15T07:03:12.520Z,69.70
2019-06-15T07:04:12.682Z,70.54
2019-06-15T07:05:12.936Z,70.03
2019-06-15T07:06:12.992Z,69.67
2019-06-15T07:07:13.283Z,69.18
2019-06-15T07:08:13.617Z,68.41
2019-06-15T07:09:13.568Z,67.96
2019-06-15T07:10:13.737Z,67.89
2019-06-15T07:11:13.963Z,67.11
2019-06-15T07:12:14.158Z,66.44
2019-06-15T07:13:14.264Z,66.05
2019-06-15T07:14:14.471Z,66.66
2019-06-15T07:15:14.713Z,66.17
2019-06-15T07:16:14.814Z,65.14
2019-06-15T07:17:15.098Z,65.75
2019-06-15T07:18:15.296Z,65.66
2019-06-15T07:19:15.335Z,62.90
2019-06-15T07:20:15.453Z,63.10
2019-06-15T07:21:15.698Z,61.67
2019-06-15T07:22:15.864Z,61.87
2019-06-15T07:23:16.792Z,61.41
2019-06-15T07:24:16.505Z,60.63
2019-06-15T07:25:16.984Z,59.95
2019-06-15T07:26:16.613Z,60.44
2019-06-15T07:27:17.373Z,59.20
2019-06-15T07:28:17.000Z,58.42
2019-06-15T07:29:16.910Z,57.93
2019-06-15T07:30:17.062Z,57.28
2019-06-15T07:31:17.228Z,57.21
2019-06-15T07:32:17.712Z,57.11
2019-06-15T07:33:17.713Z,56.75
2019-06-15T07:34:17.888Z,56.26
2019-06-15T07:35:18.040Z,55.48
2019-06-15T07:36:18.480Z,55.55
2019-06-15T07:37:18.383Z,55.55
2019-06-15T07:38:18.967Z,55.48
2019-06-15T07:39:19.087Z,56.16
2019-06-15T07:40:19.523Z,55.48
2019-06-15T07:41:19.219Z,55.16
2019-06-15T07:42:20.615Z,55.48
2019-06-15T07:43:20.933Z,54.63
2019-06-15T07:44:22.383Z,54.83
2019-06-15T07:45:21.088Z,54.53
2019-06-15T07:46:21.435Z,54.34
2019-06-15T07:47:20.292Z,53.68
2019-06-15T07:48:20.190Z,53.46
2019-06-15T07:49:20.849Z,53.29
2019-06-15T07:50:20.715Z,53.22
2019-06-15T07:51:22.312Z,53.03
2019-06-15T07:52:20.914Z,53.34
2019-06-15T07:53:21.078Z,54.05
2019-06-15T07:54:22.002Z,51.83
2019-06-15T07:55:21.308Z,51.34
2019-06-15T07:56:21.876Z,51.07
2019-06-15T07:57:21.599Z,50.98
2019-06-15T07:58:24.853Z,50.39
2019-06-15T07:59:22.214Z,50.42
2019-06-15T08:00:22.210Z,50.42
2019-06-15T08:01:22.470Z,49.36
2019-06-15T08:02:22.831Z,50.04
2019-06-15T08:03:23.128Z,49.65
2019-06-15T08:04:23.576Z,49.85
2019-06-15T08:05:24.554Z,49.68
2019-06-15T08:06:23.648Z,49.77
2019-06-15T08:07:23.446Z,49.41
2019-06-15T08:08:23.548Z,49.60
2019-06-15T08:09:23.757Z,48.74
2019-06-15T08:10:24.015Z,47.96
2019-06-15T08:11:24.113Z,48.03
2019-06-15T08:12:24.494Z,47.69
2019-06-15T08:13:24.707Z,47.99
2019-06-15T08:14:24.803Z,46.22
2019-06-15T08:15:25.185Z,46.12
2019-06-15T08:16:25.201Z,46.51
2019-06-15T08:17:25.455Z,45.90
2019-06-15T08:18:25.598Z,45.41
2019-06-15T08:19:25.778Z,46.31
2019-06-15T08:20:25.996Z,46.12
2019-06-15T08:21:26.259Z,45.45
2019-06-15T08:22:26.346Z,45.28
2019-06-15T08:23:26.432Z,44.49
2019-06-15T08:24:26.703Z,44.32
2019-06-15T08:25:26.778Z,44.52
2019-06-15T08:26:27.651Z,45.38
2019-06-15T08:27:27.315Z,44.81
2019-06-15T08:28:39.579Z,44.42
2019-06-15T08:29:28.491Z,44.12
2019-06-15T08:30:29.070Z,44.52
2019-06-15T08:31:29.044Z,44.56
2019-06-15T08:32:29.517Z,44.36
2019-06-15T08:33:28.772Z,43.70
2019-06-15T08:34:28.882Z,43.99
2019-06-15T08:35:30.051Z,43.10
2019-06-15T08:36:29.021Z,44.05
2019-06-15T08:37:32.229Z,44.95
2019-06-15T08:38:29.834Z,43.43
2019-06-15T08:39:29.530Z,43.75
2019-06-15T08:40:29.833Z,43.68
2019-06-15T08:41:30.495Z,44.09
2019-06-15T08:42:31.532Z,42.99
2019-06-15T08:43:31.506Z,42.91
2019-06-15T08:44:30.686Z,43.32
2019-06-15T08:45:34.078Z,43.13
2019-06-15T08:46:30.837Z,43.30
2019-06-15T08:47:31.072Z,42.79
2019-06-15T08:48:33.568Z,43.26
2019-06-15T08:49:33.579Z,43.93
2019-06-15T08:50:33.040Z,45.06
2019-06-15T08:51:31.565Z,44.89
2019-06-15T08:52:31.658Z,45.18
2019-06-15T08:53:31.925Z,48.03
2019-06-15T08:54:32.341Z,47.84
2019-06-15T08:55:32.573Z,47.20
2019-06-15T08:56:32.448Z,45.65
2019-06-15T08:57:32.663Z,45.18
2019-06-15T08:58:35.970Z,45.30
2019-06-15T08:59:32.863Z,45.03
2019-06-15T09:00:33.737Z,43.75
2019-06-15T09:01:33.243Z,44.30
2019-06-15T09:02:33.321Z,45.14
2019-06-15T09:03:33.732Z,45.18
2019-06-15T09:04:33.688Z,45.36
2019-06-15T09:05:33.929Z,45.38
2019-06-15T09:06:34.966Z,45.88
2019-06-15T09:07:34.198Z,47.20
2019-06-15T09:08:34.538Z,45.75
2019-06-15T09:09:36.558Z,45.51
2019-06-15T09:10:36.458Z,46.06
2019-06-15T09:11:36.289Z,45.55
2019-06-15T09:12:37.010Z,45.28
2019-06-15T09:13:36.568Z,44.32
2019-06-15T09:14:35.731Z,43.77
2019-06-15T09:15:35.922Z,43.40
2019-06-15T09:16:35.826Z,43.03
2019-06-15T09:17:36.701Z,43.84
2019-06-15T09:18:36.258Z,42.55
2019-06-15T09:19:36.329Z,42.16
2019-06-15T09:20:37.032Z,42.77
2019-06-15T09:21:37.117Z,43.75
2019-06-15T09:22:37.300Z,43.42
2019-06-15T09:23:37.382Z,42.28
2019-06-15T09:24:39.634Z,44.58
2019-06-15T09:25:37.542Z,44.76
2019-06-15T09:26:37.655Z,43.84
2019-06-15T09:27:37.996Z,44.38
2019-06-15T09:28:38.079Z,45.23
2019-06-15T09:29:39.573Z,44.74
2019-06-15T09:30:38.307Z,46.66
2019-06-15T09:31:38.665Z,48.97
2019-06-15T09:32:38.855Z,48.92
2019-06-15T09:33:38.884Z,50.93
2019-06-15T09:34:39.079Z,51.86
2019-06-15T09:35:39.319Z,51.76
2019-06-15T09:36:39.422Z,51.15
2019-06-15T09:37:39.641Z,52.59
2019-06-15T09:38:39.737Z,49.51
2019-06-15T09:39:39.976Z,48.08
2019-06-15T09:40:40.171Z,46.58
2019-06-15T09:41:40.459Z,44.26
2019-06-15T09:42:40.522Z,44.46
2019-06-15T09:43:40.770Z,42.83
2019-06-15T09:44:40.896Z,43.91
2019-06-15T09:45:41.084Z,42.38
2019-06-15T09:46:41.286Z,43.27
2019-06-15T09:47:41.784Z,42.93
2019-06-15T09:48:41.757Z,44.30
2019-06-15T09:49:41.926Z,45.21
2019-06-15T09:50:42.889Z,46.91
2019-06-15T09:51:43.553Z,48.43
2019-06-15T09:52:43.167Z,49.46
2019-06-15T09:53:42.514Z,48.60
2019-06-15T09:54:42.688Z,47.62
2019-06-15T09:55:43.001Z,47.91
2019-06-15T09:56:44.365Z,49.53
2019-06-15T09:57:43.875Z,50.56
2019-06-15T09:58:45.403Z,51.10
2019-06-15T09:59:44.469Z,52.64
2019-06-15T10:00:44.328Z,54.05
2019-06-15T10:01:46.194Z,55.19
2019-06-15T10:02:45.124Z,55.82
2019-06-15T10:03:45.170Z,56.50
2019-06-15T10:04:45.353Z,57.74
2019-06-15T10:05:44.650Z,58.39
2019-06-15T10:06:44.778Z,58.59
2019-06-15T10:07:44.871Z,59.95
2019-06-15T10:08:45.116Z,60.02
2019-06-15T10:09:45.197Z,59.75
2019-06-15T10:10:45.405Z,58.51
2019-06-15T10:11:45.618Z,57.93
2019-06-15T10:12:45.839Z,57.45
2019-06-15T10:13:46.034Z,58.25
2019-06-15T10:14:47.452Z,56.48
2019-06-15T10:15:46.975Z,56.62
2019-06-15T10:16:47.181Z,57.28
2019-06-15T10:17:47.060Z,57.61
2019-06-15T10:18:47.300Z,58.69
2019-06-15T10:19:47.137Z,59.82
2019-06-15T10:20:47.217Z,60.66
2019-06-15T10:21:47.440Z,57.98
2019-06-15T10:22:47.657Z,55.47
2019-06-15T10:23:47.855Z,53.10
2019-06-15T10:24:48.150Z,50.73
2019-06-15T10:25:50.429Z,50.49
2019-06-15T10:26:48.452Z,48.43
2019-06-15T10:27:48.547Z,47.30
2019-06-15T10:28:48.785Z,45.95
2019-06-15T10:29:48.911Z,45.40
2019-06-15T10:30:49.007Z,45.03
2019-06-15T10:31:49.159Z,43.97
2019-06-15T10:32:49.386Z,43.89
2019-06-15T10:33:49.601Z,43.03
2019-06-15T10:34:49.821Z,43.32
2019-06-15T10:35:50.024Z,42.65
2019-06-15T10:36:50.221Z,42.18
2019-06-15T10:37:50.490Z,42.46
2019-06-15T10:38:50.676Z,42.07
2019-06-15T10:39:50.865Z,41.69
2019-06-15T10:40:51.085Z,41.00
2019-06-15T10:41:51.293Z,40.72
2019-06-15T10:42:51.398Z,41.02
2019-06-15T10:43:51.642Z,40.88
2019-06-15T10:44:51.835Z,40.88
2019-06-15T10:45:51.930Z,40.39
2019-06-15T10:46:52.137Z,40.96
2019-06-15T10:47:52.355Z,43.04
2019-06-15T10:48:55.584Z,42.34
2019-06-15T10:49:52.822Z,43.48
2019-06-15T10:50:52.910Z,43.73
2019-06-15T10:51:53.131Z,43.14
2019-06-15T10:52:53.344Z,42.99
2019-06-15T10:53:53.573Z,42.14
2019-06-15T10:54:53.797Z,42.71
2019-06-15T10:55:53.988Z,41.85
2019-06-15T10:56:54.238Z,41.69
2019-06-15T10:57:54.461Z,40.88
2019-06-15T10:58:54.677Z,39.60
2019-06-15T10:59:57.631Z,39.62
2019-06-15T11:00:55.106Z,40.00
2019-06-15T11:01:55.305Z,40.39
2019-06-15T11:02:55.485Z,40.41
2019-06-15T11:03:55.678Z,40.78
2019-06-15T11:04:55.874Z,40.37
2019-06-15T11:05:56.104Z,41.02
2019-06-15T11:06:56.236Z,41.02
2019-06-15T11:07:56.423Z,40.35
2019-06-15T11:08:56.641Z,40.23
2019-06-15T11:09:56.845Z,41.04
2019-06-15T11:10:57.066Z,39.74
2019-06-15T11:11:57.308Z,41.43
2019-06-15T11:12:57.397Z,41.73
2019-06-15T11:13:57.712Z,41.51
2019-06-15T11:14:57.744Z,40.13
2019-06-15T11:15:57.979Z,39.44
2019-06-15T11:16:58.182Z,39.37
2019-06-15T11:17:58.380Z,39.17
2019-06-15T11:18:58.597Z,40.31
2019-06-15T11:19:58.811Z,40.08
2019-06-15T11:20:59.154Z,42.55
2019-06-15T11:21:59.195Z,43.66
2019-06-15T11:22:59.416Z,45.18
2019-06-15T11:23:59.618Z,46.14
2019-06-15T11:24:59.842Z,47.02
2019-06-15T11:26:00.047Z,48.58
2019-06-15T11:27:00.270Z,47.09
2019-06-15T11:28:00.426Z,47.07
2019-06-15T11:29:00.508Z,47.85
2019-06-15T11:30:13.062Z,47.66
2019-06-15T11:31:00.815Z,47.85
2019-06-15T11:32:01.030Z,47.97
2019-06-15T11:33:01.370Z,47.48
2019-06-15T11:34:01.448Z,47.48
2019-06-15T11:35:01.684Z,47.48
2019-06-15T11:36:01.795Z,47.87
2019-06-15T11:37:02.004Z,48.46
2019-06-15T11:38:02.250Z,48.87
2019-06-15T11:39:02.381Z,48.58
2019-06-15T11:40:02.558Z,47.58
2019-06-15T11:41:02.795Z,48.46
2019-06-15T11:42:03.049Z,48.83
2019-06-15T11:43:03.182Z,49.22
2019-06-15T11:44:03.283Z,48.34
2019-06-15T11:45:03.496Z,49.41
2019-06-15T11:46:03.684Z,48.93
2019-06-15T11:47:03.889Z,48.61
2019-06-15T11:48:04.106Z,48.32
2019-06-15T11:49:04.324Z,50.26
2019-06-15T11:50:04.477Z,52.02
2019-06-15T11:51:04.570Z,51.82
2019-06-15T11:52:04.808Z,51.70
2019-06-15T11:53:04.924Z,51.70
2019-06-15T11:54:05.084Z,51.21
2019-06-15T11:55:05.160Z,53.95
2019-06-15T11:56:05.475Z,52.48
2019-06-15T11:57:05.644Z,51.80
2019-06-15T11:58:05.789Z,51.24
2019-06-15T11:59:05.867Z,51.14
2019-06-15T12:00:06.087Z,51.21
2019-06-15T12:01:06.273Z,50.56
2019-06-15T12:02:06.377Z,50.63
2019-06-15T12:03:06.524Z,51.31
2019-06-15T12:04:06.660Z,51.70
2019-06-15T12:05:06.828Z,52.29
2019-06-15T12:06:07.050Z,53.73
2019-06-15T12:07:07.129Z,53.44
2019-06-15T12:08:07.222Z,52.63
2019-06-15T12:09:07.817Z,53.21
2019-06-15T12:10:07.677Z,52.46
2019-06-15T12:11:07.755Z,52.66
2019-06-15T12:12:07.983Z,53.63
2019-06-15T12:13:08.051Z,54.02
2019-06-15T12:14:08.163Z,54.31
2019-06-15T12:15:08.391Z,53.02
2019-06-15T12:16:08.613Z,55.16
2019-06-15T12:17:08.716Z,53.31
2019-06-15T12:18:08.833Z,53.48
2019-06-15T12:19:10.535Z,54.77
2019-06-15T12:20:09.583Z,53.89
2019-06-15T12:21:09.366Z,54.19
2019-06-15T12:22:09.568Z,53.21
2019-06-15T12:23:09.688Z,53.80
2019-06-15T12:24:09.824Z,53.99
2019-06-15T12:25:09.920Z,53.99
2019-06-15T12:26:10.076Z,55.36
2019-06-15T12:27:10.195Z,53.41
2019-06-15T12:28:10.376Z,53.21
2019-06-15T12:29:10.545Z,53.50
2019-06-15T12:30:10.748Z,52.99
2019-06-15T12:31:10.903Z,51.73
2019-06-15T12:32:11.063Z,50.26
2019-06-15T12:33:11.243Z,49.88
2019-06-15T12:34:11.363Z,50.78
2019-06-15T12:35:11.589Z,52.53
2019-06-15T12:36:19.251Z,52.14
2019-06-15T12:37:11.897Z,53.11
2019-06-15T12:38:12.107Z,52.53
2019-06-15T12:39:12.209Z,52.34
2019-06-15T12:40:12.418Z,53.31
2019-06-15T12:41:12.599Z,53.21
2019-06-15T12:42:12.759Z,52.44
2019-06-15T12:43:12.920Z,50.87
2019-06-15T12:44:13.203Z,51.34
2019-06-15T12:45:13.223Z,51.63
2019-06-15T12:46:13.505Z,52.12
2019-06-15T12:47:13.619Z,53.41
2019-06-15T12:48:13.850Z,52.34
2019-06-15T12:49:13.884Z,52.73
2019-06-15T12:50:14.274Z,51.17
2019-06-15T12:51:14.608Z,51.31
2019-06-15T12:52:14.815Z,50.90
2019-06-15T12:53:14.868Z,50.60
2019-06-15T12:54:14.903Z,50.92